createdAt,value
2018-07-12T00:00:06.884Z,16.52
2018-07-12T00:02:34.177Z,16.47
2018-07-12T00:05:01.454Z,16.44
2018-07-12T00:07:28.729Z,16.42
2018-07-12T00:09:56.048Z,16.38
2018-07-12T00:12:23.735Z,16.34
2018-07-12T00:14:51.029Z,16.27
2018-07-12T00:17:18.354Z,16.17
2018-07-12T00:19:45.630Z,16.12
2018-07-12T00:22:13.029Z,15.44
2018-07-12T00:24:40.317Z,16.07
2018-07-12T00:27:07.586Z,16.09
2018-07-12T00:29:35.026Z,16.10
2018-07-12T00:32:02.313Z,16.11
2018-07-12T00:34:29.581Z,16.10
2018-07-12T00:36:57.289Z,16.10
2018-07-12T00:39:24.558Z,16.10
2018-07-12T00:41:51.833Z,16.08
2018-07-12T00:44:19.419Z,16.07
2018-07-12T00:46:46.853Z,16.04
2018-07-12T00:49:14.239Z,16.02
2018-07-12T00:51:41.525Z,16.01
2018-07-12T00:54:09.293Z,15.98
2018-07-12T00:56:36.893Z,15.90
2018-07-12T00:59:04.170Z,15.86
2018-07-12T01:01:31.565Z,15.85
2018-07-12T01:03:59.005Z,15.82
2018-07-12T01:06:26.289Z,15.85
2018-07-12T01:08:53.580Z,15.86
2018-07-12T01:11:21.031Z,15.89
2018-07-12T01:13:48.309Z,15.94
2018-07-12T01:16:15.579Z,15.95
2018-07-12T01:18:43.437Z,15.96
2018-07-12T01:21:10.989Z,15.96
2018-07-12T01:23:38.532Z,15.95
2018-07-12T01:26:05.975Z,15.95
2018-07-12T01:28:33.425Z,15.94
2018-07-12T01:31:00.898Z,15.92
2018-07-12T01:33:28.181Z,15.90
2018-07-12T01:35:55.590Z,15.90
2018-07-12T01:38:23.202Z,15.89
2018-07-12T01:40:50.677Z,15.83
2018-07-12T01:43:17.965Z,15.84
2018-07-12T01:45:45.485Z,15.89
2018-07-12T01:48:13.003Z,15.94
2018-07-12T01:50:40.453Z,16.00
2018-07-12T01:53:08.169Z,16.03
2018-07-12T01:55:35.441Z,16.01
2018-07-12T01:58:03.002Z,15.98
2018-07-12T02:00:30.348Z,15.97
2018-07-12T02:02:57.615Z,15.95
2018-07-12T02:05:24.889Z,15.91
2018-07-12T02:07:52.162Z,15.88
2018-07-12T02:10:19.437Z,15.87
2018-07-12T02:12:47.289Z,15.89
2018-07-12T02:15:14.585Z,15.89
2018-07-12T02:17:41.869Z,15.88
2018-07-12T02:20:09.547Z,15.87
2018-07-12T02:22:36.850Z,15.91
2018-07-12T02:25:04.122Z,15.97
2018-07-12T02:27:31.666Z,16.05
2018-07-12T02:29:59.590Z,16.13
2018-07-12T02:32:27.235Z,16.09
2018-07-12T02:34:54.516Z,16.02
2018-07-12T02:37:21.817Z,15.99
2018-07-12T02:39:49.132Z,16.01
2018-07-12T02:42:16.417Z,16.03
2018-07-12T02:44:43.749Z,16.02
2018-07-12T02:47:11.353Z,15.99
2018-07-12T02:49:38.622Z,15.95
2018-07-12T02:52:06.046Z,16.03
2018-07-12T02:54:33.694Z,16.11
2018-07-12T02:57:00.972Z,16.23
2018-07-12T02:59:28.802Z,16.34
2018-07-12T03:01:56.415Z,16.26
2018-07-12T03:04:23.691Z,16.04
2018-07-12T03:06:51.006Z,16.21
2018-07-12T03:09:18.445Z,16.26
2018-07-12T03:11:45.732Z,16.29
2018-07-12T03:14:13.034Z,16.31
2018-07-12T03:16:40.497Z,16.36
2018-07-12T03:19:07.771Z,16.43
2018-07-12T03:21:35.478Z,16.43
2018-07-12T03:24:02.750Z,16.40
2018-07-12T03:26:30.014Z,16.38
2018-07-12T03:28:57.317Z,16.47
2018-07-12T03:31:24.589Z,16.51
2018-07-12T03:33:51.862Z,16.55
2018-07-12T03:36:19.489Z,16.60
2018-07-12T03:38:47.233Z,16.59
2018-07-12T03:41:14.509Z,16.55
2018-07-12T03:43:41.789Z,16.59
2018-07-12T03:46:09.293Z,16.59
2018-07-12T03:48:36.565Z,16.56
2018-07-12T03:51:03.861Z,16.62
2018-07-12T03:53:32.287Z,16.69
2018-07-12T03:55:59.565Z,16.77
2018-07-12T03:58:26.860Z,16.84
2018-07-12T04:00:54.606Z,16.83
2018-07-12T04:03:21.893Z,16.75
2018-07-12T04:05:49.201Z,16.72
2018-07-12T04:08:16.798Z,16.76
2018-07-12T04:10:44.490Z,16.80
2018-07-12T04:13:11.809Z,16.84
2018-07-12T04:15:39.081Z,16.93
2018-07-12T04:18:06.348Z,16.95
2018-07-12T04:20:33.645Z,17.02
2018-07-12T04:23:00.913Z,17.06
2018-07-12T04:25:28.181Z,17.10
2018-07-12T04:27:56.017Z,17.19
2018-07-12T04:30:23.299Z,17.24
2018-07-12T04:32:50.572Z,17.29
2018-07-12T04:35:18.146Z,17.37
2018-07-12T04:37:45.439Z,17.41
2018-07-12T04:40:12.729Z,17.41
2018-07-12T04:42:40.510Z,17.45
2018-07-12T04:45:07.949Z,17.49
2018-07-12T04:47:35.221Z,17.48
2018-07-12T04:50:02.513Z,17.57
2018-07-12T04:52:29.999Z,17.66
2018-07-12T04:54:57.273Z,17.73
2018-07-12T04:57:24.579Z,17.78
2018-07-12T04:59:52.173Z,17.83
2018-07-12T05:02:20.091Z,17.90
2018-07-12T05:04:47.385Z,17.97
2018-07-12T05:07:14.656Z,18.03
2018-07-12T05:09:41.929Z,18.08
2018-07-12T05:12:09.229Z,18.11
2018-07-12T05:14:36.552Z,18.15
2018-07-12T05:17:03.952Z,18.25
2018-07-12T05:19:31.438Z,18.35
2018-07-12T05:21:58.754Z,18.41
2018-07-12T05:24:26.031Z,18.47
2018-07-12T05:26:53.844Z,18.46
2018-07-12T05:29:21.121Z,18.47
2018-07-12T05:31:48.400Z,18.53
2018-07-12T05:34:15.861Z,18.59
2018-07-12T05:36:52.611Z,18.68
2018-07-12T05:39:21.582Z,18.74
2018-07-12T05:41:50.926Z,18.82
2018-07-12T05:44:19.639Z,18.87
2018-07-12T05:46:48.842Z,18.49
2018-07-12T05:49:17.881Z,18.98
2018-07-12T05:51:47.253Z,18.95
2018-07-12T05:54:17.090Z,18.96
2018-07-12T05:56:45.712Z,19.00
2018-07-12T05:59:14.425Z,18.90
2018-07-12T06:01:54.751Z,19.05
2018-07-12T06:04:23.682Z,19.12
2018-07-12T06:06:52.529Z,19.19
2018-07-12T06:09:21.433Z,19.27
2018-07-12T06:11:49.899Z,19.33
2018-07-12T06:14:18.593Z,19.38
2018-07-12T06:16:47.601Z,19.47
2018-07-12T06:19:16.049Z,19.52
2018-07-12T06:21:44.661Z,19.55
2018-07-12T06:24:13.658Z,19.60
2018-07-12T06:26:42.899Z,19.62
2018-07-12T06:29:18.251Z,19.63
2018-07-12T06:31:47.067Z,19.66
2018-07-12T06:34:15.505Z,19.68
2018-07-12T06:36:44.337Z,19.67
2018-07-12T06:39:13.101Z,19.74
2018-07-12T06:41:42.590Z,19.85
2018-07-12T06:44:11.426Z,19.96
2018-07-12T06:46:40.276Z,20.05
2018-07-12T06:49:08.747Z,20.17
2018-07-12T06:51:37.258Z,20.23
2018-07-12T06:54:06.194Z,20.26
2018-07-12T06:56:34.843Z,20.31
2018-07-12T06:59:03.438Z,20.44
2018-07-12T07:01:31.880Z,20.58
2018-07-12T07:04:00.637Z,20.67
2018-07-12T07:06:29.742Z,20.74
2018-07-12T07:08:58.209Z,20.88
2018-07-12T07:11:27.384Z,21.04
2018-07-12T07:13:56.218Z,21.22
2018-07-12T07:16:24.677Z,21.39
2018-07-12T07:18:53.306Z,21.57
2018-07-12T07:21:22.213Z,21.74
2018-07-12T07:23:50.726Z,21.89
2018-07-12T07:26:19.259Z,22.06
2018-07-12T07:28:48.273Z,22.24
2018-07-12T07:31:16.776Z,22.44
2018-07-12T07:33:45.425Z,22.63
2018-07-12T07:36:14.041Z,22.88
2018-07-12T07:38:42.514Z,23.21
2018-07-12T07:41:11.453Z,23.63
2018-07-12T07:43:40.099Z,24.31
2018-07-12T07:46:08.849Z,25.06
2018-07-12T07:48:37.312Z,25.86
2018-07-12T07:51:06.235Z,26.48
2018-07-12T07:53:34.909Z,27.02
2018-07-12T07:56:03.413Z,27.58
2018-07-12T07:58:32.273Z,28.11
2018-07-12T08:01:00.729Z,28.67
2018-07-12T08:03:29.764Z,29.13
2018-07-12T08:05:58.571Z,29.48
2018-07-12T08:08:27.162Z,29.78
2018-07-12T08:10:56.073Z,29.73
2018-07-12T08:13:24.933Z,29.47
2018-07-12T08:15:53.371Z,28.93
2018-07-12T08:18:22.130Z,29.12
2018-07-12T08:20:51.065Z,29.51
2018-07-12T08:23:19.530Z,29.95
2018-07-12T08:25:48.101Z,30.48
2018-07-12T08:28:26.712Z,30.66
2018-07-12T08:30:55.678Z,30.39
2018-07-12T08:33:25.015Z,30.02
2018-07-12T08:35:54.026Z,29.57
2018-07-12T08:38:22.508Z,29.70
2018-07-12T08:40:51.037Z,30.22
2018-07-12T08:43:19.705Z,30.49
2018-07-12T08:45:48.402Z,30.49
2018-07-12T08:48:17.070Z,30.58
2018-07-12T08:50:45.814Z,30.96
2018-07-12T08:53:14.812Z,31.02
2018-07-12T08:55:43.616Z,30.83
2018-07-12T08:58:13.538Z,31.31
2018-07-12T09:00:42.542Z,31.45
2018-07-12T09:03:11.061Z,30.88
2018-07-12T09:05:39.921Z,30.22
2018-07-12T09:08:08.358Z,29.76
2018-07-12T09:10:37.501Z,29.62
2018-07-12T09:13:06.269Z,29.64
2018-07-12T09:15:34.775Z,30.08
2018-07-12T09:18:03.402Z,30.73
2018-07-12T09:20:32.005Z,31.37
2018-07-12T09:23:00.764Z,31.78
2018-07-12T09:25:29.491Z,32.33
2018-07-12T09:27:59.081Z,32.89
2018-07-12T09:30:27.625Z,33.37
2018-07-12T09:32:56.469Z,33.73
2018-07-12T09:35:25.576Z,33.68
2018-07-12T09:37:54.145Z,33.76
2018-07-12T09:40:22.841Z,34.21
2018-07-12T09:42:51.762Z,34.16
2018-07-12T09:45:20.288Z,33.87
2018-07-12T09:47:48.890Z,33.39
2018-07-12T09:50:18.083Z,33.39
2018-07-12T09:52:46.555Z,33.63
2018-07-12T09:55:14.997Z,33.52
2018-07-12T09:57:54.881Z,32.86
2018-07-12T10:00:28.882Z,32.19
2018-07-12T10:04:00.145Z,32.47
2018-07-12T10:06:32.942Z,32.94
2018-07-12T10:09:06.763Z,33.35
2018-07-12T10:11:41.185Z,33.60
2018-07-12T10:14:15.309Z,33.98
2018-07-12T10:16:45.101Z,34.27
2018-07-12T10:19:13.866Z,34.40
2018-07-12T10:21:42.346Z,34.59
2018-07-12T10:24:11.113Z,34.84
2018-07-12T10:26:39.926Z,34.99
2018-07-12T10:29:08.739Z,35.04
2018-07-12T10:31:37.561Z,35.32
2018-07-12T10:34:06.385Z,35.35
2018-07-12T10:36:35.174Z,35.04
2018-07-12T10:39:04.201Z,34.58
2018-07-12T10:41:32.944Z,34.56
2018-07-12T10:44:01.442Z,34.56
2018-07-12T10:46:30.601Z,34.37
2018-07-12T10:48:59.330Z,34.43
2018-07-12T10:51:28.047Z,34.39
2018-07-12T10:53:57.254Z,34.38
2018-07-12T10:56:25.685Z,34.15
2018-07-12T10:58:54.270Z,34.36
2018-07-12T11:01:23.634Z,34.65
2018-07-12T11:03:52.263Z,34.60
2018-07-12T11:06:20.927Z,34.31
2018-07-12T11:08:49.913Z,34.15
2018-07-12T11:11:18.363Z,33.82
2018-07-12T11:13:49.770Z,33.41
2018-07-12T11:16:18.729Z,33.43
2018-07-12T11:18:47.193Z,33.42
2018-07-12T11:21:15.963Z,33.08
2018-07-12T11:23:44.920Z,32.99
2018-07-12T11:26:13.862Z,33.23
2018-07-12T11:28:42.742Z,33.28
2018-07-12T11:31:12.634Z,33.60
2018-07-12T11:33:43.650Z,33.92
2018-07-12T11:36:12.613Z,33.96
2018-07-12T11:38:42.689Z,33.80
2018-07-12T11:41:11.726Z,33.48
2018-07-12T11:43:41.016Z,33.17
2018-07-12T11:46:10.722Z,33.31
2018-07-12T11:48:40.812Z,33.55
2018-07-12T11:51:09.601Z,33.37
2018-07-12T11:53:38.225Z,33.32
2018-07-12T11:56:07.213Z,33.46
2018-07-12T11:58:35.665Z,33.28
2018-07-12T12:01:04.702Z,33.41
2018-07-12T12:03:33.653Z,33.46
2018-07-12T12:06:02.621Z,33.47
2018-07-12T12:08:31.557Z,33.38
2018-07-12T12:11:00.085Z,33.08
2018-07-12T12:13:28.769Z,33.01
2018-07-12T12:15:57.621Z,33.06
2018-07-12T12:18:26.109Z,32.80
2018-07-12T12:20:54.795Z,32.93
2018-07-12T12:23:23.677Z,33.18
2018-07-12T12:25:52.141Z,33.18
2018-07-12T12:28:20.583Z,32.74
2018-07-12T12:30:49.717Z,32.33
2018-07-12T12:33:18.176Z,31.86
2018-07-12T12:35:46.667Z,31.40
2018-07-12T12:38:16.190Z,31.02
2018-07-12T12:40:44.657Z,30.76
2018-07-12T12:43:13.109Z,30.45
2018-07-12T12:45:42.857Z,30.25
2018-07-12T12:48:11.623Z,30.30
2018-07-12T12:50:40.457Z,30.18
2018-07-12T12:53:09.430Z,30.15
2018-07-12T12:55:37.900Z,30.11
2018-07-12T12:58:06.393Z,30.19
2018-07-12T13:00:35.597Z,29.95
2018-07-12T13:03:04.128Z,29.61
2018-07-12T13:05:32.579Z,29.71
2018-07-12T13:08:01.559Z,29.84
2018-07-12T13:10:30.044Z,29.82
2018-07-12T13:12:58.537Z,29.94
2018-07-12T13:15:27.617Z,30.04
2018-07-12T13:17:56.425Z,30.14
2018-07-12T13:20:24.866Z,30.23
2018-07-12T13:22:53.654Z,30.21
2018-07-12T13:25:22.156Z,30.12
2018-07-12T13:27:51.007Z,30.00
2018-07-12T13:30:20.403Z,29.98
2018-07-12T13:32:48.877Z,30.02
2018-07-12T13:35:17.518Z,29.70
2018-07-12T13:37:46.190Z,29.39
2018-07-12T13:40:15.270Z,29.44
2018-07-12T13:42:43.733Z,29.36
2018-07-12T13:45:12.287Z,29.27
2018-07-12T13:47:41.013Z,29.25
2018-07-12T13:50:09.472Z,29.41
2018-07-12T13:52:38.451Z,29.25
2018-07-12T13:55:07.095Z,29.14
2018-07-12T13:57:36.013Z,29.27
2018-07-12T14:00:05.165Z,29.43
2018-07-12T14:02:33.701Z,29.45
2018-07-12T14:05:02.374Z,29.48
2018-07-12T14:07:30.805Z,29.64
2018-07-12T14:09:59.285Z,29.58
2018-07-12T14:12:27.715Z,29.57
2018-07-12T14:14:56.658Z,29.65
2018-07-12T14:17:25.127Z,29.11
2018-07-12T14:19:53.578Z,29.04
2018-07-12T14:22:22.403Z,29.08
2018-07-12T14:24:50.892Z,29.12
2018-07-12T14:27:19.334Z,29.00
2018-07-12T14:29:48.178Z,28.95
2018-07-12T14:32:17.025Z,28.89
2018-07-12T14:34:45.703Z,29.04
2018-07-12T14:37:14.149Z,29.17
2018-07-12T14:39:42.925Z,29.32
2018-07-12T14:42:11.541Z,29.33
2018-07-12T14:44:40.001Z,29.30
2018-07-12T14:47:09.021Z,29.13
2018-07-12T14:49:37.465Z,28.95
2018-07-12T14:52:06.632Z,29.06
2018-07-12T14:54:35.934Z,28.95
2018-07-12T14:57:04.361Z,28.95
2018-07-12T14:59:32.999Z,28.94
2018-07-12T15:02:01.850Z,28.99
2018-07-12T15:04:30.317Z,29.05
2018-07-12T15:06:59.056Z,28.85
2018-07-12T15:09:28.135Z,28.65
2018-07-12T15:11:56.597Z,28.57
2018-07-12T15:14:25.065Z,28.43
2018-07-12T15:16:53.663Z,28.38
2018-07-12T15:19:22.132Z,28.33
2018-07-12T15:21:50.567Z,28.48
2018-07-12T15:24:19.060Z,28.69
2018-07-12T15:26:47.510Z,28.73
2018-07-12T15:29:16.674Z,28.46
2018-07-12T15:31:45.141Z,28.48
2018-07-12T15:34:13.875Z,28.63
2018-07-12T15:36:42.669Z,28.54
2018-07-12T15:39:11.122Z,28.21
2018-07-12T15:41:40.095Z,28.11
2018-07-12T15:44:09.387Z,28.07
2018-07-12T15:46:37.853Z,28.07
2018-07-12T15:49:06.526Z,28.11
2018-07-12T15:51:35.482Z,28.15
2018-07-12T15:54:04.608Z,28.04
2018-07-12T15:56:33.338Z,27.84
2018-07-12T15:59:02.071Z,27.76
2018-07-12T16:01:30.609Z,27.78
2018-07-12T16:03:59.039Z,27.64
2018-07-12T16:06:27.813Z,27.69
2018-07-12T16:08:56.697Z,27.74
2018-07-12T16:11:25.163Z,27.89
2018-07-12T16:13:53.873Z,27.86
2018-07-12T16:16:22.937Z,27.60
2018-07-12T16:18:51.377Z,27.43
2018-07-12T16:21:21.579Z,27.65
2018-07-12T16:23:50.646Z,27.75
2018-07-12T16:26:19.533Z,27.81
2018-07-12T16:28:48.232Z,28.20
2018-07-12T16:31:16.797Z,29.00
2018-07-12T16:33:45.830Z,29.60
2018-07-12T16:36:14.500Z,30.05
2018-07-12T16:38:43.010Z,30.39
2018-07-12T16:41:14.885Z,30.89
2018-07-12T16:43:43.459Z,31.03
2018-07-12T16:46:12.347Z,31.26
2018-07-12T16:48:41.095Z,31.49
2018-07-12T16:51:09.653Z,31.57
2018-07-12T16:53:38.331Z,31.83
2018-07-12T16:56:06.821Z,31.78
2018-07-12T16:58:36.365Z,31.82
2018-07-12T17:01:04.881Z,31.73
2018-07-12T17:03:33.568Z,31.78
2018-07-12T17:06:02.030Z,31.39
2018-07-12T17:08:30.481Z,30.67
2018-07-12T17:10:58.921Z,29.98
2018-07-12T17:13:27.565Z,29.11
2018-07-12T17:15:56.385Z,28.37
2018-07-12T17:18:24.825Z,27.62
2018-07-12T17:20:53.457Z,26.96
2018-07-12T17:23:22.454Z,26.45
2018-07-12T17:25:50.907Z,25.92
2018-07-12T17:28:19.772Z,25.64
2018-07-12T17:30:48.537Z,25.27
2018-07-12T17:33:17.162Z,25.06
2018-07-12T17:35:45.647Z,24.92
2018-07-12T17:38:14.090Z,24.79
2018-07-12T17:40:44.797Z,24.68
2018-07-12T17:43:13.445Z,24.55
2018-07-12T17:45:41.926Z,24.39
2018-07-12T17:48:11.557Z,24.28
2018-07-12T17:50:41.065Z,24.16
2018-07-12T17:53:09.533Z,24.05
2018-07-12T17:55:38.197Z,23.90
2018-07-12T17:58:06.897Z,23.82
2018-07-12T18:00:35.588Z,23.76
2018-07-12T18:03:04.277Z,23.63
2018-07-12T18:05:33.236Z,23.50
2018-07-12T18:08:01.705Z,23.43
2018-07-12T18:10:30.185Z,22.60
2018-07-12T18:12:59.105Z,23.34
2018-07-12T18:15:27.586Z,23.23
2018-07-12T18:17:56.057Z,23.15
2018-07-12T18:20:24.979Z,23.09
2018-07-12T18:22:53.653Z,22.99
2018-07-12T18:25:22.125Z,22.90
2018-07-12T18:27:50.753Z,22.87
2018-07-12T18:30:19.393Z,22.82
2018-07-12T18:32:47.853Z,22.70
2018-07-12T18:35:16.681Z,22.59
2018-07-12T18:37:45.449Z,22.55
2018-07-12T18:40:14.422Z,22.46
2018-07-12T18:42:43.441Z,22.35
2018-07-12T18:45:11.961Z,22.26
2018-07-12T18:47:40.856Z,22.19
2018-07-12T18:50:09.539Z,22.13
2018-07-12T18:52:38.003Z,22.11
2018-07-12T18:55:07.153Z,22.05
2018-07-12T18:57:36.034Z,22.01
2018-07-12T19:00:04.990Z,21.94
2018-07-12T19:02:34.388Z,21.90
2018-07-12T19:05:02.838Z,21.88
2018-07-12T19:07:31.286Z,21.80
2018-07-12T19:10:00.173Z,21.75
2018-07-12T19:12:29.077Z,21.70
2018-07-12T19:14:57.600Z,21.51
2018-07-12T19:17:26.338Z,21.58
2018-07-12T19:19:55.127Z,21.53
2018-07-12T19:22:23.577Z,21.50
2018-07-12T19:24:52.279Z,21.44
2018-07-12T19:27:21.141Z,21.38
2018-07-12T19:29:49.693Z,21.32
2018-07-12T19:32:18.130Z,21.30
2018-07-12T19:34:47.543Z,21.27
2018-07-12T19:37:16.003Z,21.23
2018-07-12T19:39:44.445Z,21.18
2018-07-12T19:42:13.305Z,21.15
2018-07-12T19:44:41.749Z,21.10
2018-07-12T19:47:10.665Z,21.04
2018-07-12T19:49:39.986Z,21.00
2018-07-12T19:52:08.833Z,20.96
2018-07-12T19:54:37.304Z,20.92
2018-07-12T19:57:06.147Z,20.90
2018-07-12T19:59:34.598Z,20.88
2018-07-12T20:02:03.053Z,20.84
2018-07-12T20:04:31.729Z,20.80
2018-07-12T20:07:00.181Z,20.79
2018-07-12T20:09:28.689Z,20.76
2018-07-12T20:11:57.529Z,20.72
2018-07-12T20:14:26.037Z,20.71
2018-07-12T20:16:54.484Z,20.67
2018-07-12T20:19:22.954Z,20.67
2018-07-12T20:21:51.905Z,20.66
2018-07-12T20:24:20.443Z,20.65
2018-07-12T20:26:49.335Z,20.60
2018-07-12T20:29:18.138Z,20.59
2018-07-12T20:31:46.569Z,20.60
2018-07-12T20:34:15.079Z,20.57
2018-07-12T20:36:43.862Z,20.52
2018-07-12T20:39:12.989Z,20.47
2018-07-12T20:41:41.806Z,20.41
2018-07-12T20:44:10.535Z,20.37
2018-07-12T20:46:38.980Z,20.32
2018-07-12T20:49:07.463Z,20.25
2018-07-12T20:51:36.284Z,20.19
2018-07-12T20:54:05.301Z,20.15
2018-07-12T20:56:34.180Z,20.12
2018-07-12T20:59:02.930Z,20.10
2018-07-12T21:01:31.709Z,20.07
2018-07-12T21:04:00.170Z,20.08
2018-07-12T21:06:29.181Z,20.10
2018-07-12T21:08:57.988Z,20.07
2018-07-12T21:11:26.585Z,20.06
2018-07-12T21:13:55.222Z,19.91
2018-07-12T21:16:24.045Z,20.02
2018-07-12T21:18:52.759Z,19.99
2018-07-12T21:21:21.451Z,19.97
2018-07-12T21:23:50.636Z,19.95
2018-07-12T21:26:19.097Z,19.93
2018-07-12T21:28:47.547Z,19.94
2018-07-12T21:31:15.986Z,19.91
2018-07-12T21:33:45.054Z,19.91
2018-07-12T21:36:13.856Z,19.90
2018-07-12T21:38:42.550Z,19.92
2018-07-12T21:41:11.450Z,19.85
2018-07-12T21:43:40.200Z,19.75
2018-07-12T21:46:08.929Z,19.67
2018-07-12T21:48:37.801Z,19.69
2018-07-12T21:51:06.597Z,19.67
2018-07-12T21:53:35.569Z,19.58
2018-07-12T21:56:04.791Z,19.54
2018-07-12T21:58:33.249Z,19.48
2018-07-12T22:01:01.978Z,18.59
2018-07-12T22:03:30.817Z,19.56
2018-07-12T22:05:59.261Z,19.58
2018-07-12T22:08:29.047Z,19.55
2018-07-12T22:11:00.128Z,19.45
2018-07-12T22:13:29.627Z,19.31
2018-07-12T22:15:58.158Z,19.27
2018-07-12T22:18:26.933Z,19.25
2018-07-12T22:20:55.405Z,19.21
2018-07-12T22:23:24.134Z,19.15
2018-07-12T22:25:53.061Z,19.10
2018-07-12T22:28:21.795Z,19.09
2018-07-12T22:30:50.457Z,19.13
2018-07-12T22:33:19.065Z,19.14
2018-07-12T22:35:47.812Z,19.13
2018-07-12T22:38:16.243Z,19.13
2018-07-12T22:40:44.745Z,19.11
2018-07-12T22:43:13.568Z,19.09
2018-07-12T22:45:42.019Z,19.08
2018-07-12T22:48:11.488Z,19.05
2018-07-12T22:50:40.245Z,19.08
2018-07-12T22:53:08.707Z,19.05
2018-07-12T22:55:37.509Z,19.04
2018-07-12T22:58:06.344Z,18.97
2018-07-12T23:00:34.996Z,18.87
2018-07-12T23:03:03.469Z,18.78
2018-07-12T23:05:31.930Z,18.76
2018-07-12T23:08:00.727Z,18.76
2018-07-12T23:10:29.910Z,18.75
2018-07-12T23:12:58.357Z,18.73
2018-07-12T23:15:28.089Z,18.68
2018-07-12T23:18:03.692Z,18.62
2018-07-12T23:20:32.214Z,18.60
2018-07-12T23:23:01.033Z,18.61
2018-07-12T23:25:29.757Z,18.59
2018-07-12T23:27:58.181Z,18.54
2018-07-12T23:30:26.906Z,18.47
2018-07-12T23:32:55.765Z,18.38
2018-07-12T23:35:24.210Z,18.30
2018-07-12T23:37:53.321Z,18.26
2018-07-12T23:40:22.137Z,18.17
2018-07-12T23:42:50.602Z,18.12
2018-07-12T23:45:19.046Z,18.09
2018-07-12T23:47:47.914Z,18.15
2018-07-12T23:50:16.684Z,18.19
2018-07-12T23:52:45.141Z,18.22
2018-07-12T23:55:14.270Z,18.20
2018-07-12T23:57:43.360Z,18.20
